createdAt,value
2022-07-29T00:00:47.056Z,0.80
2022-07-29T00:03:34.017Z,0.47
2022-07-29T00:06:22.868Z,0.50
2022-07-29T00:09:10.018Z,0.50
2022-07-29T00:11:59.102Z,0.57
2022-07-29T00:14:46.202Z,0.70
2022-07-29T00:17:35.571Z,0.47
2022-07-29T00:20:22.559Z,1.10
2022-07-29T00:23:13.601Z,0.70
2022-07-29T00:26:00.722Z,0.85
2022-07-29T00:28:47.457Z,0.50
2022-07-29T00:31:34.390Z,0.47
2022-07-29T00:34:38.720Z,0.40
2022-07-29T00:37:25.540Z,0.40
2022-07-29T00:40:14.054Z,0.50
2022-07-29T00:43:01.052Z,0.68
2022-07-29T00:45:47.918Z,0.60
2022-07-29T00:48:35.297Z,0.73
2022-07-29T00:51:22.242Z,0.45
2022-07-29T00:54:08.738Z,0.28
2022-07-29T00:56:57.239Z,0.50
2022-07-29T00:59:44.300Z,0.57
2022-07-29T01:02:30.822Z,0.60
2022-07-29T01:05:19.449Z,0.50
2022-07-29T01:08:06.892Z,0.45
2022-07-29T01:10:54.422Z,0.60
2022-07-29T01:13:43.455Z,0.70
2022-07-29T01:16:33.580Z,0.70
2022-07-29T01:19:29.912Z,0.40
2022-07-29T01:22:24.397Z,0.75
2022-07-29T01:25:20.577Z,0.60
2022-07-29T01:28:18.704Z,0.40
2022-07-29T01:31:08.530Z,0.63
2022-07-29T01:34:00.845Z,0.80
2022-07-29T01:36:49.873Z,0.57
2022-07-29T01:39:39.019Z,0.65
2022-07-29T01:42:28.982Z,0.50
2022-07-29T01:45:18.104Z,0.60
2022-07-29T01:48:12.984Z,0.70
2022-07-29T01:51:03.036Z,0.82
2022-07-29T01:53:53.687Z,0.52
2022-07-29T01:56:41.700Z,0.50
2022-07-29T01:59:29.407Z,0.40
2022-07-29T02:02:19.076Z,0.60
2022-07-29T02:05:08.669Z,0.60
2022-07-29T02:07:56.640Z,0.80
2022-07-29T02:10:44.971Z,1.33
2022-07-29T02:13:32.427Z,0.57
2022-07-29T02:16:20.864Z,0.63
2022-07-29T02:19:09.627Z,0.70
2022-07-29T02:21:58.923Z,0.50
2022-07-29T02:24:46.946Z,0.47
2022-07-29T02:27:35.373Z,1.13
2022-07-29T02:30:22.934Z,0.77
2022-07-29T02:33:11.203Z,0.68
2022-07-29T02:35:59.006Z,0.52
2022-07-29T02:38:54.412Z,0.90
2022-07-29T02:41:43.893Z,0.50
2022-07-29T02:44:34.550Z,1.00
2022-07-29T02:47:23.546Z,0.68
2022-07-29T02:50:12.146Z,0.70
2022-07-29T02:53:01.424Z,0.60
2022-07-29T02:55:54.230Z,0.60
2022-07-29T02:58:41.617Z,0.60
2022-07-29T03:01:30.295Z,0.70
2022-07-29T03:04:18.416Z,0.50
2022-07-29T03:07:06.443Z,0.80
2022-07-29T03:09:53.851Z,0.80
2022-07-29T03:12:42.213Z,0.82
2022-07-29T03:15:29.775Z,0.73
2022-07-29T03:18:17.220Z,0.73
2022-07-29T03:21:03.842Z,0.60
2022-07-29T03:23:50.842Z,0.60
2022-07-29T03:26:37.707Z,0.73
2022-07-29T03:29:25.848Z,0.50
2022-07-29T03:32:23.749Z,0.60
2022-07-29T03:35:12.241Z,0.80
2022-07-29T03:37:59.118Z,0.80
2022-07-29T03:40:48.642Z,0.85
2022-07-29T03:43:38.610Z,0.40
2022-07-29T03:46:38.371Z,1.00
2022-07-29T03:49:26.397Z,0.65
2022-07-29T03:52:13.440Z,0.70
2022-07-29T03:55:00.708Z,0.93
2022-07-29T03:57:48.286Z,0.68
2022-07-29T04:00:35.676Z,0.85
2022-07-29T04:03:23.941Z,0.73
2022-07-29T04:06:10.750Z,0.70
2022-07-29T04:08:57.501Z,0.70
2022-07-29T04:12:01.840Z,0.75
2022-07-29T04:14:51.151Z,0.60
2022-07-29T04:17:37.892Z,0.52
2022-07-29T04:20:26.641Z,0.80
2022-07-29T04:23:13.667Z,0.73
2022-07-29T04:26:01.278Z,0.93
2022-07-29T04:28:51.200Z,0.73
2022-07-29T04:31:38.132Z,0.52
2022-07-29T04:34:27.944Z,0.50
2022-07-29T04:37:16.498Z,0.50
2022-07-29T04:40:03.715Z,0.80
2022-07-29T04:42:50.344Z,0.55
2022-07-29T04:45:37.249Z,0.70
2022-07-29T04:48:28.496Z,0.68
2022-07-29T04:51:15.509Z,0.77
2022-07-29T04:54:03.753Z,0.98
2022-07-29T04:56:50.525Z,1.10
2022-07-29T04:59:37.237Z,0.90
2022-07-29T05:02:23.987Z,0.68
2022-07-29T05:05:11.587Z,0.65
2022-07-29T05:07:58.369Z,0.65
2022-07-29T05:10:46.591Z,0.70
2022-07-29T05:13:45.540Z,0.60
2022-07-29T05:16:34.409Z,0.70
2022-07-29T05:19:21.440Z,0.77
2022-07-29T05:22:08.015Z,0.60
2022-07-29T05:24:55.013Z,1.20
2022-07-29T05:27:43.013Z,0.60
2022-07-29T05:30:29.612Z,0.70
2022-07-29T05:33:35.732Z,1.10
2022-07-29T05:36:23.384Z,0.80
2022-07-29T05:39:10.066Z,0.70
2022-07-29T05:41:56.689Z,0.50
2022-07-29T05:44:44.805Z,0.60
2022-07-29T05:47:31.387Z,0.73
2022-07-29T05:50:17.996Z,0.50
2022-07-29T05:53:19.346Z,0.70
2022-07-29T05:56:08.176Z,0.60
2022-07-29T05:58:55.023Z,0.70
2022-07-29T06:01:43.292Z,0.65
2022-07-29T06:04:30.277Z,0.70
2022-07-29T06:07:17.545Z,0.77
2022-07-29T06:10:04.567Z,0.57
2022-07-29T06:12:51.421Z,0.80
2022-07-29T06:15:38.087Z,0.77
2022-07-29T06:18:26.745Z,0.90
2022-07-29T06:21:13.749Z,0.80
2022-07-29T06:24:00.358Z,0.60
2022-07-29T06:26:47.939Z,0.93
2022-07-29T06:29:34.598Z,1.08
2022-07-29T06:32:23.018Z,1.08
2022-07-29T06:38:30.794Z,0.75
2022-07-29T06:41:20.556Z,0.80
2022-07-29T06:44:07.051Z,1.00
2022-07-29T06:46:55.601Z,0.90
2022-07-29T06:49:42.705Z,1.00
2022-07-29T06:52:30.923Z,0.80
2022-07-29T06:55:24.912Z,1.20
2022-07-29T06:58:12.075Z,0.80
2022-07-29T07:00:59.911Z,1.13
2022-07-29T07:03:47.131Z,0.90
2022-07-29T07:06:34.074Z,1.40
2022-07-29T07:09:22.298Z,0.80
2022-07-29T07:12:09.498Z,0.60
2022-07-29T07:14:56.285Z,0.80
2022-07-29T07:17:43.059Z,0.65
2022-07-29T07:20:30.071Z,1.15
2022-07-29T07:23:16.846Z,0.82
2022-07-29T07:26:06.737Z,0.60
2022-07-29T07:28:53.595Z,1.00
2022-07-29T07:31:40.338Z,0.80
2022-07-29T07:34:29.616Z,1.10
2022-07-29T07:37:16.852Z,0.93
2022-07-29T07:40:03.929Z,0.70
2022-07-29T07:42:52.473Z,0.60
2022-07-29T07:45:41.049Z,0.70
2022-07-29T07:48:27.872Z,1.00
2022-07-29T07:51:14.720Z,0.90
2022-07-29T07:54:02.779Z,0.88
2022-07-29T07:56:53.014Z,0.73
2022-07-29T07:59:41.903Z,1.20
2022-07-29T08:02:28.920Z,1.20
2022-07-29T08:05:18.572Z,1.00
2022-07-29T08:08:05.727Z,1.40
2022-07-29T08:10:56.899Z,1.20
2022-07-29T08:13:44.041Z,1.60
2022-07-29T08:16:32.569Z,1.00
2022-07-29T08:19:19.654Z,1.08
2022-07-29T08:22:06.232Z,1.33
2022-07-29T08:24:57.027Z,1.45
2022-07-29T08:27:44.464Z,1.13
2022-07-29T08:30:33.184Z,1.13
2022-07-29T08:33:21.298Z,1.40
2022-07-29T08:36:08.418Z,0.95
2022-07-29T08:38:55.424Z,1.17
2022-07-29T08:41:56.629Z,0.93
2022-07-29T08:44:44.500Z,0.93
2022-07-29T08:47:31.243Z,1.48
2022-07-29T08:50:19.636Z,0.95
2022-07-29T08:53:07.025Z,1.33
2022-07-29T08:55:53.652Z,1.27
2022-07-29T08:58:40.778Z,0.82
2022-07-29T09:01:36.379Z,1.00
2022-07-29T09:04:33.011Z,1.25
2022-07-29T09:07:21.564Z,1.20
2022-07-29T09:10:09.072Z,1.30
2022-07-29T09:12:56.974Z,1.15
2022-07-29T09:15:43.590Z,1.33
2022-07-29T09:18:40.235Z,0.85
2022-07-29T09:21:44.873Z,0.80
2022-07-29T09:24:46.949Z,1.40
2022-07-29T09:27:34.625Z,1.23
2022-07-29T09:30:31.381Z,0.85
2022-07-29T09:33:18.721Z,0.90
2022-07-29T09:36:06.226Z,1.05
2022-07-29T09:39:00.353Z,0.70
2022-07-29T09:41:49.676Z,1.00
2022-07-29T09:44:46.559Z,1.00
2022-07-29T09:47:43.208Z,1.20
2022-07-29T09:50:40.234Z,1.10
2022-07-29T09:53:33.915Z,1.52
2022-07-29T09:56:20.460Z,2.40
2022-07-29T09:59:09.402Z,1.00
2022-07-29T10:01:56.474Z,0.70
2022-07-29T10:04:44.177Z,1.77
2022-07-29T10:07:47.489Z,0.70
2022-07-29T10:10:36.900Z,1.20
2022-07-29T10:13:24.220Z,1.38
2022-07-29T10:16:14.037Z,0.90
2022-07-29T10:19:02.075Z,1.30
2022-07-29T10:21:49.158Z,1.40
2022-07-29T10:24:36.280Z,1.35
2022-07-29T10:27:24.116Z,1.15
2022-07-29T10:30:11.716Z,1.40
2022-07-29T10:33:12.327Z,1.13
2022-07-29T10:36:07.632Z,1.17
2022-07-29T10:39:00.153Z,1.40
2022-07-29T10:42:01.760Z,1.20
2022-07-29T10:44:50.543Z,2.27
2022-07-29T10:47:37.260Z,1.35
2022-07-29T10:50:27.294Z,0.90
2022-07-29T10:53:14.306Z,1.05
2022-07-29T10:56:01.343Z,1.05
2022-07-29T10:59:24.020Z,1.10
2022-07-29T11:02:41.300Z,1.37
2022-07-29T11:05:40.652Z,1.27
2022-07-29T11:08:28.340Z,1.00
2022-07-29T11:11:38.037Z,1.00
2022-07-29T11:14:40.009Z,1.40
2022-07-29T11:17:27.684Z,1.50
2022-07-29T11:20:36.574Z,1.80
2022-07-29T11:23:26.084Z,1.10
2022-07-29T11:26:18.658Z,1.25
2022-07-29T11:29:06.792Z,2.15
2022-07-29T11:31:56.659Z,1.70
2022-07-29T11:34:43.770Z,3.73
2022-07-29T11:37:32.566Z,1.88
2022-07-29T11:40:29.487Z,1.50
2022-07-29T11:43:36.512Z,1.30
2022-07-29T11:46:42.536Z,1.30
2022-07-29T11:49:32.275Z,1.20
2022-07-29T11:52:20.374Z,1.08
2022-07-29T11:55:10.553Z,2.03
2022-07-29T11:58:03.982Z,1.38
2022-07-29T12:00:51.650Z,1.20
2022-07-29T12:03:38.354Z,1.33
2022-07-29T12:06:27.144Z,1.10
2022-07-29T12:09:14.685Z,1.27
2022-07-29T12:12:05.405Z,1.45
2022-07-29T12:14:52.925Z,1.48
2022-07-29T12:17:41.661Z,1.70
2022-07-29T12:20:29.444Z,1.77
2022-07-29T12:23:18.993Z,1.23
2022-07-29T12:26:07.659Z,1.30
2022-07-29T12:28:57.916Z,1.20
2022-07-29T12:31:49.543Z,1.17
2022-07-29T12:34:36.669Z,1.60
2022-07-29T12:37:30.919Z,1.20
2022-07-29T12:40:29.705Z,1.20
2022-07-29T12:43:17.149Z,1.25
2022-07-29T12:46:15.385Z,1.20
2022-07-29T12:49:04.187Z,1.80
2022-07-29T12:51:51.193Z,1.40
2022-07-29T12:54:38.022Z,1.40
2022-07-29T12:57:26.730Z,1.20
2022-07-29T13:00:14.857Z,1.63
2022-07-29T13:03:02.238Z,1.60
2022-07-29T13:05:51.327Z,1.75
2022-07-29T13:08:38.000Z,1.20
2022-07-29T13:11:34.222Z,1.70
2022-07-29T13:14:34.068Z,1.35
2022-07-29T13:17:21.687Z,1.40
2022-07-29T13:20:13.380Z,1.65
2022-07-29T13:23:00.697Z,1.70
2022-07-29T13:25:47.450Z,1.40
2022-07-29T13:28:34.246Z,1.73
2022-07-29T13:31:22.987Z,1.30
2022-07-29T13:34:10.034Z,1.90
2022-07-29T13:36:56.961Z,1.08
2022-07-29T13:39:43.908Z,1.30
2022-07-29T13:42:40.133Z,1.05
2022-07-29T13:45:29.114Z,1.10
2022-07-29T13:48:17.682Z,1.60
2022-07-29T13:51:04.319Z,1.70
2022-07-29T13:53:50.900Z,1.50
2022-07-29T13:56:37.474Z,0.90
2022-07-29T13:59:24.371Z,1.38
2022-07-29T14:02:11.520Z,1.00
2022-07-29T14:05:01.157Z,0.93
2022-07-29T14:07:49.601Z,1.40
2022-07-29T14:10:36.547Z,0.90
2022-07-29T14:13:25.223Z,1.17
2022-07-29T14:16:12.397Z,1.17
2022-07-29T14:18:59.536Z,1.00
2022-07-29T14:21:47.611Z,1.00
2022-07-29T14:24:37.058Z,0.77
2022-07-29T14:27:37.317Z,1.10
2022-07-29T14:30:25.395Z,1.50
2022-07-29T14:33:12.053Z,2.38
2022-07-29T14:36:01.098Z,0.98
2022-07-29T14:38:49.506Z,1.20
2022-07-29T14:41:39.051Z,1.42
2022-07-29T14:44:31.786Z,1.03
2022-07-29T14:47:18.759Z,0.87
2022-07-29T14:50:06.285Z,1.15
2022-07-29T14:52:53.280Z,0.82
2022-07-29T14:55:42.918Z,1.40
2022-07-29T14:58:29.879Z,0.82
2022-07-29T15:01:16.641Z,0.95
2022-07-29T15:04:03.652Z,1.08
2022-07-29T15:06:51.069Z,1.00
2022-07-29T15:09:40.213Z,0.80
2022-07-29T15:12:38.073Z,1.60
2022-07-29T15:15:25.136Z,0.97
2022-07-29T15:18:11.761Z,1.47
2022-07-29T15:20:58.812Z,1.35
2022-07-29T15:23:45.792Z,0.95
2022-07-29T15:26:32.530Z,1.60
2022-07-29T15:29:20.676Z,1.20
2022-07-29T15:32:08.750Z,1.40
2022-07-29T15:34:55.551Z,1.50
2022-07-29T15:37:48.474Z,1.20
2022-07-29T15:40:36.289Z,1.40
2022-07-29T15:43:23.213Z,1.80
2022-07-29T15:46:28.986Z,2.30
2022-07-29T15:49:16.435Z,0.93
2022-07-29T15:52:03.716Z,1.23
2022-07-29T15:54:53.055Z,1.30
2022-07-29T15:57:40.788Z,1.50
2022-07-29T16:00:28.033Z,1.27
2022-07-29T16:03:19.563Z,1.30
2022-07-29T16:06:06.638Z,1.17
2022-07-29T16:08:55.724Z,1.30
2022-07-29T16:11:42.626Z,1.15
2022-07-29T16:14:29.563Z,1.30
2022-07-29T16:17:16.562Z,1.23
2022-07-29T16:20:05.098Z,1.30
2022-07-29T16:22:51.964Z,1.63
2022-07-29T16:25:59.054Z,1.50
2022-07-29T16:28:46.749Z,1.30
2022-07-29T16:31:33.850Z,1.08
2022-07-29T16:34:20.913Z,2.35
2022-07-29T16:37:08.919Z,1.40
2022-07-29T16:39:55.485Z,1.00
2022-07-29T16:42:47.075Z,1.20
2022-07-29T16:45:46.198Z,0.88
2022-07-29T16:48:33.485Z,1.40
2022-07-29T16:51:22.401Z,1.42
2022-07-29T16:54:10.770Z,1.45
2022-07-29T16:56:57.764Z,1.40
2022-07-29T16:59:45.308Z,1.30
2022-07-29T17:02:32.325Z,1.38
2022-07-29T17:05:19.176Z,1.50
2022-07-29T17:08:07.391Z,1.30
2022-07-29T17:10:56.981Z,0.90
2022-07-29T17:13:43.902Z,1.00
2022-07-29T17:16:32.904Z,1.23
2022-07-29T17:19:19.981Z,1.20
2022-07-29T17:22:15.561Z,1.38
2022-07-29T17:25:06.790Z,0.95
2022-07-29T17:28:00.543Z,0.80
2022-07-29T17:30:47.941Z,1.30
2022-07-29T17:33:34.779Z,1.23
2022-07-29T17:36:26.873Z,1.40
2022-07-29T17:39:18.712Z,1.20
2022-07-29T17:42:05.826Z,1.63
2022-07-29T17:44:53.803Z,1.13
2022-07-29T17:47:41.762Z,1.00
2022-07-29T17:50:31.618Z,1.20
2022-07-29T17:53:18.872Z,1.40
2022-07-29T17:56:06.568Z,1.35
2022-07-29T17:58:53.447Z,1.10
2022-07-29T18:01:41.671Z,1.38
2022-07-29T18:04:29.132Z,1.30
2022-07-29T18:07:16.328Z,1.70
2022-07-29T18:10:03.140Z,1.20
2022-07-29T18:12:49.998Z,1.50
2022-07-29T18:15:36.763Z,1.50
2022-07-29T18:18:25.212Z,1.17
2022-07-29T18:21:11.878Z,1.13
2022-07-29T18:23:58.866Z,1.57
2022-07-29T18:26:45.787Z,1.60
2022-07-29T18:29:32.628Z,1.40
2022-07-29T18:32:19.699Z,1.60
2022-07-29T18:35:17.942Z,0.98
2022-07-29T18:38:05.977Z,1.88
2022-07-29T18:40:52.712Z,1.02
2022-07-29T18:43:39.381Z,1.25
2022-07-29T18:46:26.031Z,1.60
2022-07-29T18:49:13.267Z,1.40
2022-07-29T18:52:04.468Z,1.13
2022-07-29T18:54:51.019Z,1.08
2022-07-29T18:57:55.077Z,1.35
2022-07-29T19:00:43.872Z,1.30
2022-07-29T19:03:30.532Z,1.55
2022-07-29T19:06:17.437Z,1.48
2022-07-29T19:09:06.088Z,1.23
2022-07-29T19:11:56.278Z,0.93
2022-07-29T19:14:44.777Z,1.90
2022-07-29T19:17:31.634Z,1.08
2022-07-29T19:20:21.634Z,1.40
2022-07-29T19:23:08.906Z,1.45
2022-07-29T19:25:57.167Z,1.50
2022-07-29T19:28:44.113Z,1.60
2022-07-29T19:31:38.826Z,1.90
2022-07-29T19:34:25.379Z,1.40
2022-07-29T19:37:13.387Z,1.40
2022-07-29T19:40:00.255Z,1.38
2022-07-29T19:42:51.011Z,1.23
2022-07-29T19:45:39.582Z,1.45
2022-07-29T19:48:26.248Z,1.55
2022-07-29T19:51:14.510Z,1.85
2022-07-29T19:54:01.341Z,1.92
2022-07-29T19:56:48.045Z,2.40
2022-07-29T19:59:36.082Z,2.55
2022-07-29T20:02:23.057Z,2.25
2022-07-29T20:05:10.844Z,2.35
2022-07-29T20:07:58.475Z,1.47
2022-07-29T20:10:48.297Z,1.60
2022-07-29T20:13:35.259Z,1.73
2022-07-29T20:16:23.682Z,1.58
2022-07-29T20:19:12.163Z,1.73
2022-07-29T20:21:59.081Z,1.50
2022-07-29T20:24:46.279Z,1.77
2022-07-29T20:27:36.753Z,1.55
2022-07-29T20:30:27.458Z,1.50
2022-07-29T20:33:20.160Z,1.40
2022-07-29T20:36:07.256Z,1.70
2022-07-29T20:38:53.940Z,1.45
2022-07-29T20:41:40.950Z,1.75
2022-07-29T20:44:27.922Z,2.00
2022-07-29T20:47:15.932Z,2.10
2022-07-29T20:50:04.069Z,1.52
2022-07-29T20:52:50.975Z,1.95
2022-07-29T20:55:38.375Z,2.05
2022-07-29T20:58:25.140Z,2.10
2022-07-29T21:01:12.108Z,3.10
2022-07-29T21:03:59.117Z,1.70
2022-07-29T21:06:47.449Z,1.92
2022-07-29T21:09:34.427Z,1.70
2022-07-29T21:12:29.292Z,2.43
2022-07-29T21:15:16.281Z,2.30
2022-07-29T21:18:05.915Z,3.00
2022-07-29T21:20:52.603Z,2.22
2022-07-29T21:23:40.862Z,2.10
2022-07-29T21:26:27.641Z,2.13
2022-07-29T21:29:13.738Z,2.55
2022-07-29T21:32:00.654Z,2.30
2022-07-29T21:34:47.400Z,2.47
2022-07-29T21:37:34.274Z,2.53
2022-07-29T21:40:22.595Z,2.33
2022-07-29T21:43:09.226Z,2.78
2022-07-29T21:45:56.439Z,3.00
2022-07-29T21:48:45.352Z,2.72
2022-07-29T21:51:32.525Z,1.92
2022-07-29T21:54:19.111Z,2.30
2022-07-29T21:57:09.764Z,2.60
2022-07-29T22:00:02.165Z,2.60
2022-07-29T22:02:49.551Z,2.40
2022-07-29T22:05:36.488Z,2.00
2022-07-29T22:08:23.075Z,1.73
2022-07-29T22:11:09.685Z,1.75
2022-07-29T22:13:58.112Z,1.90
2022-07-29T22:16:45.603Z,2.10
2022-07-29T22:19:32.394Z,2.28
2022-07-29T22:22:19.520Z,2.05
2022-07-29T22:25:07.052Z,2.83
2022-07-29T22:27:54.133Z,2.10
2022-07-29T22:30:42.101Z,2.47
2022-07-29T22:33:29.680Z,2.83
2022-07-29T22:36:16.643Z,1.90
2022-07-29T22:39:04.029Z,1.80
2022-07-29T22:41:50.796Z,2.72
2022-07-29T22:44:37.603Z,1.98
2022-07-29T22:47:45.845Z,2.30
2022-07-29T22:50:32.206Z,1.87
2022-07-29T22:53:19.127Z,2.08
2022-07-29T22:56:06.252Z,2.38
2022-07-29T22:58:55.278Z,1.83
2022-07-29T23:01:41.947Z,2.20
2022-07-29T23:04:30.433Z,2.33
2022-07-29T23:07:17.584Z,2.60
2022-07-29T23:10:04.318Z,2.72
2022-07-29T23:12:51.440Z,3.03
2022-07-29T23:15:38.291Z,4.07
2022-07-29T23:18:25.168Z,3.88
2022-07-29T23:21:13.236Z,2.63
2022-07-29T23:23:59.996Z,2.90
2022-07-29T23:26:46.744Z,2.67
2022-07-29T23:29:36.625Z,2.03
2022-07-29T23:32:23.562Z,4.00
2022-07-29T23:35:10.803Z,2.53
2022-07-29T23:37:59.285Z,2.50
2022-07-29T23:40:46.321Z,2.60
2022-07-29T23:43:33.503Z,2.33
2022-07-29T23:46:23.975Z,2.13
2022-07-29T23:49:11.230Z,2.10
2022-07-29T23:51:57.965Z,2.67
2022-07-29T23:54:45.963Z,3.47
2022-07-29T23:57:33.243Z,2.33
